createdAt,value
2019-02-11T00:00:24.027Z,84.61
2019-02-11T00:01:24.027Z,85.54
2019-02-11T00:02:24.001Z,86.26
2019-02-11T00:03:23.991Z,85.13
2019-02-11T00:04:23.990Z,84.65
2019-02-11T00:05:23.987Z,84.65
2019-02-11T00:06:24.025Z,85.58
2019-02-11T00:07:23.985Z,86.10
2019-02-11T00:08:23.952Z,85.68
2019-02-11T00:09:23.938Z,85.58
2019-02-11T00:10:24.007Z,85.78
2019-02-11T00:11:23.920Z,84.23
2019-02-11T00:12:23.910Z,83.45
2019-02-11T00:13:23.879Z,83.51
2019-02-11T00:14:23.963Z,83.76
2019-02-11T00:15:23.859Z,83.97
2019-02-11T00:16:23.902Z,84.59
2019-02-11T00:17:23.856Z,83.76
2019-02-11T00:18:23.934Z,83.65
2019-02-11T00:19:23.816Z,83.90
2019-02-11T00:20:23.806Z,84.17
2019-02-11T00:21:23.832Z,83.55
2019-02-11T00:22:23.801Z,82.56
2019-02-11T00:23:23.788Z,83.18
2019-02-11T00:24:23.766Z,82.56
2019-02-11T00:25:23.754Z,83.59
2019-02-11T00:26:23.748Z,82.97
2019-02-11T00:27:23.730Z,82.15
2019-02-11T00:28:23.722Z,82.25
2019-02-11T00:29:23.712Z,82.76
2019-02-11T00:30:23.699Z,81.42
2019-02-11T00:31:23.781Z,81.56
2019-02-11T00:32:23.674Z,81.05
2019-02-11T00:33:23.665Z,81.05
2019-02-11T00:34:23.663Z,80.74
2019-02-11T00:35:23.647Z,80.32
2019-02-11T00:36:23.628Z,80.63
2019-02-11T00:37:23.624Z,80.22
2019-02-11T00:38:23.615Z,80.22
2019-02-11T00:39:23.599Z,80.22
2019-02-11T00:40:23.599Z,81.15
2019-02-11T00:41:23.590Z,80.77
2019-02-11T00:42:23.564Z,80.74
2019-02-11T00:43:23.564Z,81.49
2019-02-11T00:44:23.569Z,80.77
2019-02-11T00:45:23.565Z,79.70
2019-02-11T00:46:23.569Z,80.43
2019-02-11T00:47:23.523Z,79.39
2019-02-11T00:48:23.503Z,79.53
2019-02-11T00:49:23.507Z,79.60
2019-02-11T00:50:23.483Z,79.43
2019-02-11T00:51:23.467Z,78.29
2019-02-11T00:52:23.458Z,77.60
2019-02-11T00:53:23.465Z,78.91
2019-02-11T00:54:23.431Z,79.22
2019-02-11T00:55:23.433Z,79.67
2019-02-11T00:56:23.430Z,79.57
2019-02-11T00:57:23.404Z,79.26
2019-02-11T00:58:23.396Z,79.57
2019-02-11T00:59:23.382Z,79.88
2019-02-11T01:00:23.366Z,80.60
2019-02-11T01:01:23.355Z,80.19
2019-02-11T01:02:23.354Z,79.77
2019-02-11T01:03:23.356Z,79.05
2019-02-11T01:04:23.340Z,79.67
2019-02-11T01:05:23.370Z,79.67
2019-02-11T01:06:23.310Z,79.36
2019-02-11T01:07:23.312Z,79.26
2019-02-11T01:08:23.304Z,79.57
2019-02-11T01:09:23.310Z,79.77
2019-02-11T01:10:23.262Z,79.57
2019-02-11T01:11:23.316Z,78.95
2019-02-11T01:12:23.240Z,79.67
2019-02-11T01:13:27.818Z,78.85
2019-02-11T01:14:23.214Z,79.57
2019-02-11T01:15:23.216Z,79.16
2019-02-11T01:16:23.200Z,79.19
2019-02-11T01:17:23.190Z,78.57
2019-02-11T01:18:23.170Z,78.36
2019-02-11T01:19:23.169Z,78.47
2019-02-11T01:20:23.157Z,77.33
2019-02-11T01:21:23.149Z,77.22
2019-02-11T01:22:23.126Z,77.53
2019-02-11T01:23:23.119Z,77.53
2019-02-11T01:24:23.109Z,76.64
2019-02-11T01:25:23.158Z,77.26
2019-02-11T01:26:23.096Z,77.71
2019-02-11T01:27:23.105Z,77.71
2019-02-11T01:28:23.152Z,78.64
2019-02-11T01:29:23.057Z,78.54
2019-02-11T01:30:23.047Z,79.06
2019-02-11T01:31:23.072Z,79.58
2019-02-11T01:32:23.027Z,79.06
2019-02-11T01:33:23.009Z,79.06
2019-02-11T01:34:22.996Z,78.54
2019-02-11T01:35:22.992Z,79.30
2019-02-11T01:36:22.979Z,78.78
2019-02-11T01:37:22.977Z,79.10
2019-02-11T01:38:23.038Z,80.33
2019-02-11T01:39:22.947Z,79.92
2019-02-11T01:40:22.937Z,80.27
2019-02-11T01:41:22.923Z,80.27
2019-02-11T01:42:22.917Z,81.10
2019-02-11T01:43:22.907Z,81.72
2019-02-11T01:44:22.890Z,82.39
2019-02-11T01:45:22.884Z,82.80
2019-02-11T01:46:22.867Z,82.18
2019-02-11T01:47:22.858Z,82.84
2019-02-11T01:48:22.901Z,83.56
2019-02-11T01:49:22.856Z,84.70
2019-02-11T01:50:22.823Z,84.50
2019-02-11T01:51:22.815Z,83.18
2019-02-11T01:52:22.809Z,83.18
2019-02-11T01:53:22.802Z,83.81
2019-02-11T01:54:22.793Z,85.82
2019-02-11T01:55:22.770Z,86.13
2019-02-11T01:56:22.770Z,86.34
2019-02-11T01:57:22.750Z,86.55
2019-02-11T01:58:22.742Z,86.13
2019-02-11T01:59:22.731Z,86.65
2019-02-11T02:00:22.746Z,86.76
2019-02-11T02:01:22.728Z,86.86
2019-02-11T02:02:22.737Z,86.34
2019-02-11T02:03:22.688Z,87.27
2019-02-11T02:04:22.668Z,87.94
2019-02-11T02:05:22.669Z,87.63
2019-02-11T02:06:22.657Z,87.21
2019-02-11T02:07:22.648Z,88.35
2019-02-11T02:08:22.616Z,87.52
2019-02-11T02:09:22.611Z,88.56
2019-02-11T02:10:22.605Z,88.35
2019-02-11T02:11:22.603Z,88.25
2019-02-11T02:12:22.587Z,87.94
2019-02-11T02:13:22.569Z,88.25
2019-02-11T02:14:22.573Z,88.40
2019-02-11T02:15:22.552Z,89.18
2019-02-11T02:16:22.541Z,88.87
2019-02-11T02:17:22.535Z,88.98
2019-02-11T02:18:22.525Z,88.98
2019-02-11T02:19:22.496Z,88.15
2019-02-11T02:20:22.490Z,87.42
2019-02-11T02:21:22.490Z,87.01
2019-02-11T02:22:22.471Z,88.56
2019-02-11T02:23:22.480Z,87.25
2019-02-11T02:24:22.451Z,88.19
2019-02-11T02:25:22.445Z,88.92
2019-02-11T02:26:22.429Z,88.81
2019-02-11T02:27:22.411Z,88.81
2019-02-11T02:28:22.492Z,89.39
2019-02-11T02:29:22.399Z,88.98
2019-02-11T02:30:22.386Z,88.71
2019-02-11T02:31:22.370Z,88.98
2019-02-11T02:32:22.371Z,88.87
2019-02-11T02:33:22.420Z,89.43
2019-02-11T02:34:22.363Z,89.12
2019-02-11T02:35:22.321Z,88.98
2019-02-11T02:36:22.372Z,89.33
2019-02-11T02:37:22.312Z,89.02
2019-02-11T02:38:22.295Z,89.23
2019-02-11T02:39:22.296Z,88.71
2019-02-11T02:40:22.366Z,88.71
2019-02-11T02:41:22.268Z,88.81
2019-02-11T02:42:22.257Z,89.54
2019-02-11T02:43:22.246Z,89.58
2019-02-11T02:44:22.234Z,88.75
2019-02-11T02:45:22.229Z,88.96
2019-02-11T02:46:22.264Z,89.37
2019-02-11T02:47:22.249Z,89.17
2019-02-11T02:48:22.184Z,89.79
2019-02-11T02:49:22.177Z,89.20
2019-02-11T02:50:22.165Z,89.00
2019-02-11T02:51:22.168Z,89.00
2019-02-11T02:52:22.154Z,89.00
2019-02-11T02:53:22.140Z,89.45
2019-02-11T02:54:22.124Z,89.98
2019-02-11T02:55:22.112Z,90.19
2019-02-11T02:56:22.117Z,89.98
2019-02-11T02:57:22.090Z,90.50
2019-02-11T02:58:22.081Z,89.45
2019-02-11T02:59:22.076Z,89.25
2019-02-11T03:00:22.062Z,89.81
2019-02-11T03:01:22.055Z,90.33
2019-02-11T03:02:22.039Z,90.12
2019-02-11T03:03:22.033Z,90.64
2019-02-11T03:04:22.026Z,91.06
2019-02-11T03:05:22.003Z,90.22
2019-02-11T03:06:21.997Z,91.27
2019-02-11T03:07:21.989Z,90.44
2019-02-11T03:08:21.972Z,91.58
2019-02-11T03:09:21.966Z,91.27
2019-02-11T03:10:21.953Z,90.95
2019-02-11T03:11:21.957Z,90.54
2019-02-11T03:12:21.936Z,91.27
2019-02-11T03:13:21.969Z,92.00
2019-02-11T03:14:21.911Z,90.64
2019-02-11T03:15:21.897Z,91.16
2019-02-11T03:16:21.929Z,91.37
2019-02-11T03:17:21.884Z,91.37
2019-02-11T03:18:21.867Z,91.47
2019-02-11T03:19:21.857Z,92.21
2019-02-11T03:20:21.865Z,91.37
2019-02-11T03:21:21.840Z,91.16
2019-02-11T03:22:21.821Z,90.64
2019-02-11T03:23:21.892Z,91.12
2019-02-11T03:24:21.804Z,91.06
2019-02-11T03:25:21.842Z,91.37
2019-02-11T03:26:21.783Z,91.37
2019-02-11T03:27:21.780Z,91.27
2019-02-11T03:28:21.765Z,90.95
2019-02-11T03:29:21.742Z,91.37
2019-02-11T03:30:21.742Z,90.95
2019-02-11T03:31:21.776Z,92.21
2019-02-11T03:32:21.725Z,91.89
2019-02-11T03:33:21.860Z,90.95
2019-02-11T03:34:21.694Z,91.27
2019-02-11T03:35:21.684Z,91.37
2019-02-11T03:36:21.671Z,91.68
2019-02-11T03:37:21.674Z,92.21
2019-02-11T03:38:21.671Z,91.78
2019-02-11T03:39:21.636Z,91.75
2019-02-11T03:40:21.640Z,91.78
2019-02-11T03:41:21.624Z,92.27
2019-02-11T03:42:21.604Z,91.37
2019-02-11T03:43:21.753Z,92.06
2019-02-11T03:44:21.593Z,92.16
2019-02-11T03:45:21.572Z,92.06
2019-02-11T03:46:21.570Z,93.10
2019-02-11T03:47:21.664Z,92.27
2019-02-11T03:48:21.543Z,92.16
2019-02-11T03:49:21.534Z,92.06
2019-02-11T03:50:21.525Z,92.10
2019-02-11T03:51:21.521Z,92.16
2019-02-11T03:52:21.517Z,91.85
2019-02-11T03:53:21.493Z,92.47
2019-02-11T03:54:21.487Z,93.16
2019-02-11T03:55:21.505Z,93.27
2019-02-11T03:56:21.459Z,91.91
2019-02-11T03:57:21.445Z,91.91
2019-02-11T03:58:21.430Z,92.12
2019-02-11T03:59:21.423Z,91.81
2019-02-11T04:00:21.422Z,91.91
2019-02-11T04:01:21.406Z,92.08
2019-02-11T04:02:21.397Z,92.12
2019-02-11T04:03:21.377Z,91.97
2019-02-11T04:04:21.367Z,92.12
2019-02-11T04:05:21.357Z,92.70
2019-02-11T04:06:21.357Z,91.97
2019-02-11T04:07:21.350Z,92.29
2019-02-11T04:08:21.333Z,91.83
2019-02-11T04:09:21.319Z,92.03
2019-02-11T04:10:21.311Z,92.03
2019-02-11T04:11:21.298Z,91.93
2019-02-11T04:12:21.297Z,91.83
2019-02-11T04:13:21.262Z,91.72
2019-02-11T04:14:25.082Z,92.03
2019-02-11T04:15:21.266Z,91.93
2019-02-11T04:16:21.242Z,91.89
2019-02-11T04:17:21.232Z,91.93
2019-02-11T04:18:21.225Z,91.93
2019-02-11T04:19:21.204Z,91.78
2019-02-11T04:20:21.194Z,91.78
2019-02-11T04:21:21.180Z,91.89
2019-02-11T04:22:21.174Z,93.14
2019-02-11T04:23:21.174Z,91.89
2019-02-11T04:24:21.158Z,91.53
2019-02-11T04:25:21.141Z,91.89
2019-02-11T04:26:21.134Z,91.33
2019-02-11T04:27:21.145Z,90.95
2019-02-11T04:28:21.116Z,91.43
2019-02-11T04:29:21.116Z,91.53
2019-02-11T04:30:21.104Z,91.95
2019-02-11T04:31:21.077Z,91.12
2019-02-11T04:32:21.072Z,90.50
2019-02-11T04:33:21.058Z,90.77
2019-02-11T04:34:21.054Z,91.12
2019-02-11T04:35:21.055Z,90.91
2019-02-11T04:36:21.058Z,90.77
2019-02-11T04:37:21.015Z,91.08
2019-02-11T04:38:21.009Z,90.19
2019-02-11T04:39:20.997Z,90.35
2019-02-11T04:40:21.013Z,90.14
2019-02-11T04:41:21.019Z,90.14
2019-02-11T04:42:20.955Z,90.14
2019-02-11T04:43:20.943Z,90.45
2019-02-11T04:44:20.972Z,90.25
2019-02-11T04:45:20.933Z,89.37
2019-02-11T04:46:20.947Z,90.00
2019-02-11T04:47:20.917Z,89.69
2019-02-11T04:48:20.916Z,89.58
2019-02-11T04:49:20.895Z,89.89
2019-02-11T04:50:20.901Z,90.20
2019-02-11T04:51:20.919Z,89.89
2019-02-11T04:52:20.887Z,90.10
2019-02-11T04:53:20.842Z,90.00
2019-02-11T04:54:20.855Z,90.20
2019-02-11T04:55:20.872Z,89.89
2019-02-11T04:56:20.811Z,89.69
2019-02-11T04:57:20.823Z,89.48
2019-02-11T04:58:20.802Z,89.17
2019-02-11T04:59:20.770Z,88.96
2019-02-11T05:00:20.855Z,89.17
2019-02-11T05:01:20.756Z,89.69
2019-02-11T05:02:20.766Z,89.89
2019-02-11T05:03:20.743Z,89.58
2019-02-11T05:04:20.740Z,89.79
2019-02-11T05:05:20.712Z,89.54
2019-02-11T05:06:20.721Z,89.03
2019-02-11T05:07:20.702Z,89.17
2019-02-11T05:08:20.680Z,88.92
2019-02-11T05:09:20.704Z,89.03
2019-02-11T05:10:20.662Z,88.75
2019-02-11T05:11:20.660Z,88.51
2019-02-11T05:12:20.674Z,88.65
2019-02-11T05:13:20.625Z,88.65
2019-02-11T05:14:20.612Z,89.03
2019-02-11T05:15:20.642Z,88.54
2019-02-11T05:16:20.644Z,89.17
2019-02-11T05:17:20.635Z,88.40
2019-02-11T05:18:20.563Z,88.65
2019-02-11T05:19:20.581Z,88.54
2019-02-11T05:20:20.565Z,88.71
2019-02-11T05:21:20.552Z,89.13
2019-02-11T05:22:20.537Z,88.51
2019-02-11T05:23:20.521Z,88.82
2019-02-11T05:24:20.523Z,88.40
2019-02-11T05:25:20.530Z,88.30
2019-02-11T05:26:20.493Z,88.61
2019-02-11T05:27:20.558Z,87.99
2019-02-11T05:28:20.580Z,87.88
2019-02-11T05:29:20.495Z,88.51
2019-02-11T05:30:20.437Z,88.92
2019-02-11T05:31:20.425Z,87.84
2019-02-11T05:32:20.425Z,88.30
2019-02-11T05:33:20.670Z,87.78
2019-02-11T05:34:20.393Z,88.46
2019-02-11T05:35:20.431Z,88.05
2019-02-11T05:36:20.367Z,88.05
2019-02-11T05:37:20.371Z,87.99
2019-02-11T05:38:20.364Z,88.26
2019-02-11T05:39:20.333Z,88.36
2019-02-11T05:40:20.322Z,88.36
2019-02-11T05:41:20.319Z,88.30
2019-02-11T05:42:20.297Z,88.15
2019-02-11T05:43:20.313Z,88.46
2019-02-11T05:44:20.295Z,87.84
2019-02-11T05:45:20.278Z,87.99
2019-02-11T05:46:20.254Z,88.82
2019-02-11T05:47:20.244Z,88.88
2019-02-11T05:48:20.233Z,88.67
2019-02-11T05:49:20.222Z,88.20
2019-02-11T05:50:20.220Z,88.09
2019-02-11T05:51:20.236Z,88.20
2019-02-11T05:52:20.218Z,88.30
2019-02-11T05:53:20.234Z,87.95
2019-02-11T05:54:20.277Z,88.20
2019-02-11T05:55:20.206Z,88.82
2019-02-11T05:56:20.150Z,87.99
2019-02-11T05:57:20.169Z,88.82
2019-02-11T05:58:20.151Z,88.67
2019-02-11T05:59:20.150Z,88.92
2019-02-11T06:00:20.171Z,88.88
2019-02-11T06:01:20.091Z,88.36
2019-02-11T06:02:20.080Z,88.40
2019-02-11T06:03:20.066Z,87.74
2019-02-11T06:04:20.055Z,88.67
2019-02-11T06:05:20.044Z,88.88
2019-02-11T06:06:20.059Z,88.78
2019-02-11T06:07:20.031Z,88.26
2019-02-11T06:08:20.019Z,89.09
2019-02-11T06:09:20.006Z,88.05
2019-02-11T06:10:19.987Z,88.05
2019-02-11T06:11:19.990Z,87.84
2019-02-11T06:12:19.971Z,87.95
2019-02-11T06:13:19.957Z,88.26
2019-02-11T06:14:19.945Z,88.15
2019-02-11T06:15:19.942Z,87.74
2019-02-11T06:16:19.927Z,87.95
2019-02-11T06:17:19.919Z,88.15
2019-02-11T06:18:19.943Z,88.15
2019-02-11T06:19:20.015Z,88.26
2019-02-11T06:20:19.891Z,88.46
2019-02-11T06:21:19.867Z,88.57
2019-02-11T06:22:19.863Z,87.84
2019-02-11T06:23:19.847Z,88.15
2019-02-11T06:24:19.832Z,88.88
2019-02-11T06:25:19.924Z,87.95
2019-02-11T06:26:19.826Z,88.05
2019-02-11T06:27:19.801Z,88.36
2019-02-11T06:28:19.799Z,87.95
2019-02-11T06:29:19.795Z,88.36
2019-02-11T06:30:19.776Z,88.42
2019-02-11T06:31:19.766Z,87.70
2019-02-11T06:32:19.758Z,88.46
2019-02-11T06:33:19.757Z,88.53
2019-02-11T06:34:19.771Z,87.90
2019-02-11T06:35:19.717Z,87.90
2019-02-11T06:36:19.700Z,88.26
2019-02-11T06:37:19.690Z,87.84
2019-02-11T06:38:19.686Z,88.94
2019-02-11T06:39:19.673Z,88.01
2019-02-11T06:40:19.668Z,88.42
2019-02-11T06:41:19.664Z,88.84
2019-02-11T06:42:19.635Z,88.42
2019-02-11T06:43:19.621Z,88.11
2019-02-11T06:44:19.611Z,87.80
2019-02-11T06:45:19.611Z,87.70
2019-02-11T06:46:19.598Z,87.80
2019-02-11T06:47:19.585Z,87.80
2019-02-11T06:48:19.566Z,88.11
2019-02-11T06:49:19.565Z,88.01
2019-02-11T06:50:19.549Z,88.21
2019-02-11T06:51:19.549Z,88.21
2019-02-11T06:52:19.521Z,87.90
2019-02-11T06:53:19.513Z,88.01
2019-02-11T06:54:19.505Z,88.21
2019-02-11T06:55:19.493Z,88.21
2019-02-11T06:56:19.491Z,88.11
2019-02-11T06:57:19.493Z,88.11
2019-02-11T06:58:19.454Z,87.49
2019-02-11T06:59:19.450Z,87.66
2019-02-11T07:00:19.443Z,87.24
2019-02-11T07:01:19.427Z,87.80
2019-02-11T07:02:19.415Z,87.07
2019-02-11T07:03:19.413Z,87.66
2019-02-11T07:04:19.423Z,86.93
2019-02-11T07:05:19.381Z,87.07
2019-02-11T07:06:19.377Z,86.97
2019-02-11T07:07:19.365Z,87.49
2019-02-11T07:08:19.353Z,87.80
2019-02-11T07:09:19.337Z,87.66
2019-02-11T07:10:19.329Z,87.04
2019-02-11T07:11:19.381Z,86.93
2019-02-11T07:12:19.299Z,88.18
2019-02-11T07:13:20.591Z,88.01
2019-02-11T07:14:19.287Z,87.35
2019-02-11T07:15:22.089Z,88.21
2019-02-11T07:16:19.309Z,87.70
2019-02-11T07:17:19.251Z,88.28
2019-02-11T07:18:19.245Z,88.18
2019-02-11T07:19:19.243Z,88.39
2019-02-11T07:20:19.218Z,88.18
2019-02-11T07:21:19.204Z,88.79
2019-02-11T07:22:19.193Z,88.59
2019-02-11T07:23:19.186Z,87.76
2019-02-11T07:24:19.184Z,87.97
2019-02-11T07:25:19.167Z,87.97
2019-02-11T07:26:19.164Z,87.55
2019-02-11T07:27:19.146Z,87.66
2019-02-11T07:28:19.140Z,87.97
2019-02-11T07:29:19.128Z,87.14
2019-02-11T07:30:19.238Z,86.62
2019-02-11T07:31:19.118Z,87.97
2019-02-11T07:32:19.082Z,88.07
2019-02-11T07:33:19.068Z,86.83
2019-02-11T07:34:19.091Z,86.31
2019-02-11T07:35:19.052Z,85.75
2019-02-11T07:36:19.043Z,86.17
2019-02-11T07:37:19.022Z,85.65
2019-02-11T07:38:19.015Z,85.75
2019-02-11T07:39:19.006Z,85.17
2019-02-11T07:40:18.991Z,84.55
2019-02-11T07:41:18.979Z,83.99
2019-02-11T07:42:18.987Z,83.78
2019-02-11T07:43:18.960Z,83.99
2019-02-11T07:44:18.941Z,83.99
2019-02-11T07:45:18.935Z,83.89
2019-02-11T07:46:18.932Z,83.99
2019-02-11T07:47:18.923Z,83.99
2019-02-11T07:48:18.923Z,84.61
2019-02-11T07:49:18.895Z,84.51
2019-02-11T07:50:18.885Z,84.20
2019-02-11T07:51:18.881Z,84.47
2019-02-11T07:52:26.494Z,83.99
2019-02-11T07:53:19.849Z,84.47
2019-02-11T07:54:18.834Z,84.09
2019-02-11T07:55:18.846Z,84.06
2019-02-11T07:56:18.821Z,84.82
2019-02-11T07:57:18.807Z,84.61
2019-02-11T07:58:18.807Z,84.30
2019-02-11T07:59:18.804Z,84.41
2019-02-11T08:00:18.770Z,84.82
2019-02-11T08:01:18.764Z,85.13
2019-02-11T08:02:18.847Z,85.13
2019-02-11T08:03:18.785Z,86.31
2019-02-11T08:04:18.734Z,86.52
2019-02-11T08:05:18.723Z,86.99
2019-02-11T08:06:18.714Z,88.28
2019-02-11T08:07:18.695Z,88.34
2019-02-11T08:08:18.688Z,87.97
2019-02-11T08:09:18.687Z,88.79
2019-02-11T08:10:18.670Z,89.17
2019-02-11T08:11:18.673Z,89.00
2019-02-11T08:12:18.654Z,88.79
2019-02-11T08:13:18.629Z,89.00
2019-02-11T08:14:18.665Z,89.48
2019-02-11T08:15:18.615Z,89.52
2019-02-11T08:16:18.594Z,88.96
2019-02-11T08:17:18.590Z,89.42
2019-02-11T08:18:18.610Z,89.58
2019-02-11T08:19:18.568Z,89.00
2019-02-11T08:20:18.563Z,89.58
2019-02-11T08:21:18.563Z,88.86
2019-02-11T08:22:18.548Z,88.55
2019-02-11T08:23:18.521Z,88.65
2019-02-11T08:24:18.568Z,88.76
2019-02-11T08:25:18.500Z,88.86
2019-02-11T08:26:18.499Z,89.07
2019-02-11T08:27:18.500Z,88.65
2019-02-11T08:28:19.806Z,88.51
2019-02-11T08:29:18.459Z,88.40
2019-02-11T08:30:18.446Z,88.24
2019-02-11T08:31:18.485Z,88.24
2019-02-11T08:32:18.464Z,88.03
2019-02-11T08:33:18.415Z,87.78
2019-02-11T08:34:18.444Z,87.78
2019-02-11T08:35:18.397Z,87.72
2019-02-11T08:36:18.378Z,88.09
2019-02-11T08:37:18.371Z,87.68
2019-02-11T08:38:18.380Z,87.88
2019-02-11T08:39:18.364Z,88.40
2019-02-11T08:40:18.333Z,87.33
2019-02-11T08:41:18.433Z,87.88
2019-02-11T08:42:18.320Z,87.57
2019-02-11T08:43:18.309Z,86.02
2019-02-11T08:44:18.297Z,86.44
2019-02-11T08:45:18.302Z,86.23
2019-02-11T08:46:18.272Z,85.71
2019-02-11T08:47:19.443Z,85.82
2019-02-11T08:48:18.253Z,85.61
2019-02-11T08:49:18.244Z,84.47
2019-02-11T08:50:18.242Z,85.09
2019-02-11T08:51:18.237Z,85.05
2019-02-11T08:52:18.207Z,85.57
2019-02-11T08:53:18.190Z,85.68
2019-02-11T08:54:18.188Z,84.22
2019-02-11T08:55:18.179Z,84.95
2019-02-11T08:56:18.172Z,84.43
2019-02-11T08:57:18.147Z,84.64
2019-02-11T08:58:18.147Z,85.88
2019-02-11T08:59:18.125Z,85.88
2019-02-11T09:00:18.146Z,84.64
2019-02-11T09:01:18.149Z,84.12
2019-02-11T09:02:18.112Z,83.81
2019-02-11T09:03:18.080Z,84.43
2019-02-11T09:04:19.202Z,84.12
2019-02-11T09:05:18.067Z,85.05
2019-02-11T09:06:18.129Z,85.05
2019-02-11T09:07:18.064Z,85.36
2019-02-11T09:08:18.064Z,84.74
2019-02-11T09:09:18.078Z,84.12
2019-02-11T09:10:18.045Z,86.09
2019-02-11T09:11:17.999Z,86.09
2019-02-11T09:12:17.990Z,84.01
2019-02-11T09:13:17.988Z,83.09
2019-02-11T09:14:17.962Z,83.81
2019-02-11T09:15:17.960Z,82.09
2019-02-11T09:16:17.942Z,82.09
2019-02-11T09:17:17.933Z,81.54
2019-02-11T09:18:17.933Z,82.15
2019-02-11T09:19:17.922Z,81.57
2019-02-11T09:20:17.903Z,81.37
2019-02-11T09:21:17.897Z,81.33
2019-02-11T09:22:17.871Z,81.84
2019-02-11T09:23:17.877Z,81.02
2019-02-11T09:24:17.872Z,79.88
2019-02-11T09:25:17.849Z,80.50
2019-02-11T09:26:17.826Z,79.26
2019-02-11T09:27:17.827Z,79.47
2019-02-11T09:28:17.807Z,79.05
2019-02-11T09:29:17.794Z,77.81
2019-02-11T09:30:17.791Z,77.29
2019-02-11T09:31:17.808Z,77.50
2019-02-11T09:32:18.292Z,78.02
2019-02-11T09:33:17.757Z,78.02
2019-02-11T09:34:17.740Z,77.81
2019-02-11T09:35:17.780Z,77.50
2019-02-11T09:36:17.739Z,77.39
2019-02-11T09:37:17.711Z,78.33
2019-02-11T09:38:17.756Z,77.60
2019-02-11T09:39:17.686Z,77.39
2019-02-11T09:40:17.831Z,77.19
2019-02-11T09:41:17.675Z,76.26
2019-02-11T09:42:17.656Z,76.46
2019-02-11T09:43:17.656Z,76.05
2019-02-11T09:44:17.636Z,75.43
2019-02-11T09:45:17.629Z,76.05
2019-02-11T09:46:17.617Z,75.43
2019-02-11T09:47:17.604Z,75.19
2019-02-11T09:48:17.608Z,74.88
2019-02-11T09:49:17.604Z,73.74
2019-02-11T09:50:17.578Z,73.88
2019-02-11T09:51:17.621Z,73.25
2019-02-11T09:52:17.554Z,72.39
2019-02-11T09:53:17.534Z,72.91
2019-02-11T09:54:17.529Z,73.54
2019-02-11T09:55:17.517Z,73.94
2019-02-11T09:56:17.505Z,72.88
2019-02-11T09:57:17.555Z,71.98
2019-02-11T09:58:17.487Z,71.57
2019-02-11T09:59:17.483Z,71.36
2019-02-11T10:00:17.472Z,71.26
2019-02-11T10:01:17.464Z,71.57
2019-02-11T10:02:17.449Z,71.12
2019-02-11T10:03:17.432Z,70.92
2019-02-11T10:04:17.442Z,71.12
2019-02-11T10:05:17.408Z,71.33
2019-02-11T10:06:17.408Z,70.71
2019-02-11T10:07:17.419Z,70.81
2019-02-11T10:08:17.380Z,69.98
2019-02-11T10:09:17.367Z,69.57
2019-02-11T10:10:17.359Z,70.19
2019-02-11T10:11:17.341Z,70.81
2019-02-11T10:12:21.495Z,70.29
2019-02-11T10:13:17.330Z,69.67
2019-02-11T10:14:17.317Z,70.61
2019-02-11T10:15:17.319Z,70.92
2019-02-11T10:16:17.310Z,70.92
2019-02-11T10:17:17.286Z,69.98
2019-02-11T10:18:17.279Z,70.71
2019-02-11T10:19:17.264Z,68.54
2019-02-11T10:20:17.288Z,69.02
2019-02-11T10:21:17.243Z,68.71
2019-02-11T10:22:17.224Z,68.43
2019-02-11T10:23:17.217Z,68.23
2019-02-11T10:24:17.244Z,68.95
2019-02-11T10:25:17.207Z,67.47
2019-02-11T10:26:17.199Z,67.71
2019-02-11T10:27:17.195Z,66.36
2019-02-11T10:28:17.165Z,66.75
2019-02-11T10:29:17.211Z,66.75
2019-02-11T10:30:17.142Z,66.57
2019-02-11T10:31:17.134Z,66.03
2019-02-11T10:32:17.132Z,66.75
2019-02-11T10:33:17.145Z,66.23
2019-02-11T10:34:17.098Z,66.33
2019-02-11T10:35:17.079Z,67.37
2019-02-11T10:36:17.082Z,67.27
2019-02-11T10:37:17.104Z,66.33
2019-02-11T10:38:17.091Z,66.20
2019-02-11T10:39:17.036Z,65.79
2019-02-11T10:40:17.031Z,65.82
2019-02-11T10:41:17.010Z,66.41
2019-02-11T10:42:17.008Z,66.10
2019-02-11T10:43:16.999Z,66.72
2019-02-11T10:44:17.004Z,65.79
2019-02-11T10:45:16.974Z,65.58
2019-02-11T10:46:21.094Z,66.10
2019-02-11T10:47:16.956Z,65.79
2019-02-11T10:48:16.959Z,66.00
2019-02-11T10:49:16.935Z,66.00
2019-02-11T10:50:16.932Z,66.41
2019-02-11T10:51:16.912Z,66.51
2019-02-11T10:52:16.923Z,66.00
2019-02-11T10:53:16.883Z,66.00
2019-02-11T10:54:16.885Z,66.10
2019-02-11T10:55:16.880Z,64.86
2019-02-11T10:56:16.875Z,64.34
2019-02-11T10:57:16.847Z,64.55
2019-02-11T10:58:16.830Z,63.93
2019-02-11T10:59:16.824Z,64.03
2019-02-11T11:00:16.827Z,64.14
2019-02-11T11:01:16.804Z,64.34
2019-02-11T11:02:16.789Z,64.65
2019-02-11T11:03:16.778Z,64.45
2019-02-11T11:04:16.767Z,64.24
2019-02-11T11:05:16.751Z,64.65
2019-02-11T11:06:16.757Z,64.55
2019-02-11T11:07:16.762Z,64.52
2019-02-11T11:08:16.724Z,64.62
2019-02-11T11:09:16.763Z,64.62
2019-02-11T11:10:16.698Z,64.00
2019-02-11T11:11:16.687Z,63.90
2019-02-11T11:12:16.706Z,63.90
2019-02-11T11:13:16.665Z,65.14
2019-02-11T11:14:16.660Z,64.62
2019-02-11T11:15:16.676Z,64.00
2019-02-11T11:16:16.639Z,64.62
2019-02-11T11:17:16.623Z,64.21
2019-02-11T11:18:16.638Z,64.42
2019-02-11T11:19:16.599Z,64.73
2019-02-11T11:20:16.591Z,64.62
2019-02-11T11:21:16.591Z,64.62
2019-02-11T11:22:16.560Z,64.59
2019-02-11T11:23:16.565Z,63.39
2019-02-11T11:24:16.558Z,64.00
2019-02-11T11:25:16.529Z,63.59
2019-02-11T11:26:16.519Z,63.18
2019-02-11T11:27:16.510Z,62.94
2019-02-11T11:28:16.512Z,62.87
2019-02-11T11:29:16.492Z,62.97
2019-02-11T11:30:16.478Z,63.59
2019-02-11T11:31:16.464Z,62.87
2019-02-11T11:32:16.454Z,62.25
2019-02-11T11:33:16.473Z,62.25
2019-02-11T11:34:16.434Z,62.46
2019-02-11T11:35:16.433Z,62.66
2019-02-11T11:36:16.412Z,63.39
2019-02-11T11:37:16.405Z,63.90
2019-02-11T11:38:16.386Z,63.77
2019-02-11T11:39:16.385Z,62.94
2019-02-11T11:40:16.380Z,62.94
2019-02-11T11:41:16.415Z,63.46
2019-02-11T11:42:16.339Z,62.01
2019-02-11T11:43:16.327Z,61.91
2019-02-11T11:44:16.323Z,62.74
2019-02-11T11:45:16.328Z,63.97
2019-02-11T11:46:16.307Z,63.56
2019-02-11T11:47:16.287Z,63.35
2019-02-11T11:48:16.290Z,62.87
2019-02-11T11:49:16.276Z,62.76
2019-02-11T11:50:16.268Z,63.59
2019-02-11T11:51:16.259Z,62.76
2019-02-11T11:52:16.239Z,63.28
2019-02-11T11:53:16.223Z,62.97
2019-02-11T11:54:16.218Z,62.87
2019-02-11T11:55:16.208Z,63.77
2019-02-11T11:56:16.216Z,62.97
2019-02-11T11:57:16.189Z,62.66
2019-02-11T11:58:16.174Z,63.28
2019-02-11T11:59:16.202Z,62.25
2019-02-11T12:00:16.173Z,62.15
2019-02-11T12:01:19.501Z,62.66
2019-02-11T12:02:16.632Z,62.15
2019-02-11T12:03:16.167Z,63.18
2019-02-11T12:04:16.155Z,62.35
2019-02-11T12:05:16.091Z,61.94
2019-02-11T12:06:16.118Z,62.55
2019-02-11T12:07:16.089Z,62.87
2019-02-11T12:08:16.104Z,62.97
2019-02-11T12:09:16.126Z,62.97
2019-02-11T12:10:16.041Z,63.90
2019-02-11T12:11:16.037Z,63.28
2019-02-11T12:12:16.023Z,63.07
2019-02-11T12:13:22.446Z,62.97
2019-02-11T12:14:16.994Z,62.76
2019-02-11T12:15:16.020Z,62.97
2019-02-11T12:16:15.982Z,62.87
2019-02-11T12:17:15.969Z,63.69
2019-02-11T12:18:15.953Z,63.28
2019-02-11T12:19:15.969Z,63.69
2019-02-11T12:20:15.986Z,63.59
2019-02-11T12:21:16.000Z,63.28
2019-02-11T12:22:15.917Z,63.39
2019-02-11T12:23:15.893Z,63.87
2019-02-11T12:24:16.668Z,63.49
2019-02-11T12:25:15.884Z,63.28
2019-02-11T12:26:15.920Z,63.18
2019-02-11T12:27:15.873Z,64.11
2019-02-11T12:28:15.850Z,64.21
2019-02-11T12:29:15.845Z,63.90
2019-02-11T12:30:15.824Z,64.00
2019-02-11T12:31:15.820Z,64.52
2019-02-11T12:32:15.805Z,64.62
2019-02-11T12:33:15.784Z,65.48
2019-02-11T12:34:15.780Z,65.69
2019-02-11T12:35:15.793Z,66.20
2019-02-11T12:36:15.752Z,67.68
2019-02-11T12:37:15.760Z,69.12
2019-02-11T12:38:15.741Z,69.54
2019-02-11T12:39:15.720Z,70.26
2019-02-11T12:40:15.727Z,70.16
2019-02-11T12:41:15.695Z,69.88
2019-02-11T12:42:15.706Z,70.16
2019-02-11T12:43:15.712Z,70.40
2019-02-11T12:44:15.891Z,70.19
2019-02-11T12:45:15.649Z,69.98
2019-02-11T12:46:15.634Z,70.29
2019-02-11T12:47:15.669Z,70.67
2019-02-11T12:48:15.624Z,70.26
2019-02-11T12:49:15.627Z,70.26
2019-02-11T12:50:15.622Z,69.85
2019-02-11T12:51:15.594Z,69.74
2019-02-11T12:52:15.599Z,68.30